createdAt,value
2019-06-08T00:00:40.854Z,16.50
2019-06-08T00:06:06.012Z,16.30
2019-06-08T00:11:31.904Z,16.20
2019-06-08T00:16:57.936Z,16.00
2019-06-08T00:22:23.894Z,15.80
2019-06-08T00:27:50.896Z,15.80
2019-06-08T00:33:17.118Z,15.80
2019-06-08T00:38:44.879Z,15.80
2019-06-08T00:43:52.175Z,15.60
2019-06-08T00:49:18.474Z,15.70
2019-06-08T00:54:44.275Z,15.70
2019-06-08T01:00:11.207Z,15.60
2019-06-08T01:05:36.361Z,15.60
2019-06-08T01:11:01.666Z,15.50
2019-06-08T01:16:27.120Z,15.60
2019-06-08T01:21:52.507Z,15.50
2019-06-08T01:27:17.788Z,15.30
2019-06-08T01:32:43.294Z,15.60
2019-06-08T01:38:08.619Z,15.70
2019-06-08T01:43:16.876Z,15.60
2019-06-08T01:48:42.302Z,15.70
2019-06-08T01:54:08.834Z,15.50
2019-06-08T01:59:35.164Z,15.50
2019-06-08T02:05:00.231Z,15.60
2019-06-08T02:10:26.624Z,15.70
2019-06-08T02:15:51.935Z,15.60
2019-06-08T02:21:17.352Z,15.60
2019-06-08T02:26:43.152Z,15.30
2019-06-08T02:32:08.577Z,15.40
2019-06-08T02:37:35.468Z,15.50
2019-06-08T02:43:01.165Z,15.20
2019-06-08T02:48:27.309Z,15.10
2019-06-08T02:53:52.623Z,14.90
2019-06-08T02:59:23.141Z,14.90
2019-06-08T03:04:52.673Z,14.90
2019-06-08T03:10:18.443Z,14.80
2019-06-08T03:15:43.933Z,14.50
2019-06-08T03:21:08.906Z,14.50
2019-06-08T03:26:34.372Z,14.50
2019-06-08T03:31:59.558Z,14.30
2019-06-08T03:37:24.708Z,14.40
2019-06-08T03:42:51.074Z,14.30
2019-06-08T03:48:16.823Z,14.20
2019-06-08T03:53:42.602Z,14.10
2019-06-08T03:59:08.136Z,14.00
2019-06-08T04:04:34.053Z,14.10
2019-06-08T04:09:59.168Z,14.20
2019-06-08T04:15:24.407Z,14.30
2019-06-08T04:20:51.599Z,14.40
2019-06-08T04:26:16.918Z,14.30
2019-06-08T04:31:43.651Z,14.50
2019-06-08T04:37:09.742Z,14.60
2019-06-08T04:42:26.912Z,14.90
2019-06-08T04:47:34.926Z,14.90
2019-06-08T04:52:49.707Z,15.00
2019-06-08T04:57:56.647Z,15.00
2019-06-08T05:03:21.867Z,15.10
2019-06-08T05:08:47.382Z,15.20
2019-06-08T05:13:54.363Z,15.00
2019-06-08T05:19:01.309Z,14.90
2019-06-08T05:24:09.489Z,14.90
2019-06-08T05:29:17.076Z,14.90
2019-06-08T05:34:31.192Z,15.10
2019-06-08T05:39:39.538Z,15.20
2019-06-08T05:44:55.825Z,15.10
2019-06-08T05:50:02.967Z,14.80
2019-06-08T05:55:28.141Z,14.90
2019-06-08T06:00:37.688Z,15.00
2019-06-08T06:05:46.437Z,14.90
2019-06-08T06:10:55.007Z,15.00
2019-06-08T06:16:02.646Z,14.60
2019-06-08T06:21:12.099Z,14.80
2019-06-08T06:26:37.694Z,14.70
2019-06-08T06:31:56.152Z,14.70
2019-06-08T06:37:03.765Z,14.60
2019-06-08T06:42:24.602Z,14.70
2019-06-08T06:47:32.924Z,14.60
2019-06-08T06:52:42.605Z,14.80
2019-06-08T06:57:51.478Z,14.80
2019-06-08T07:03:17.834Z,14.80
2019-06-08T07:08:27.338Z,14.90
2019-06-08T07:13:34.502Z,14.90
2019-06-08T07:18:48.361Z,15.00
2019-06-08T07:23:56.238Z,14.90
2019-06-08T07:29:21.615Z,15.00
2019-06-08T07:34:29.704Z,15.00
2019-06-08T07:39:37.610Z,15.10
2019-06-08T07:44:44.828Z,15.20
2019-06-08T07:49:59.818Z,15.10
2019-06-08T07:55:08.689Z,15.30
2019-06-08T08:00:34.168Z,15.20
2019-06-08T08:05:41.387Z,15.50
2019-06-08T08:10:51.091Z,15.60
2019-06-08T08:16:00.641Z,15.60
2019-06-08T08:21:21.829Z,15.50
2019-06-08T08:26:18.732Z,15.40
2019-06-08T08:31:43.897Z,15.30
2019-06-08T08:36:58.152Z,15.50
2019-06-08T08:42:05.624Z,15.60
2019-06-08T08:47:31.177Z,15.50
2019-06-08T08:52:58.941Z,15.60
2019-06-08T08:58:21.499Z,15.60
2019-06-08T09:03:48.172Z,15.60
2019-06-08T09:09:18.805Z,15.60
2019-06-08T09:14:24.493Z,15.60
2019-06-08T09:19:31.584Z,15.90
2019-06-08T09:24:48.589Z,16.50
2019-06-08T09:29:59.263Z,16.70
2019-06-08T09:35:05.471Z,16.70
2019-06-08T09:40:19.569Z,16.80
2019-06-08T09:45:34.757Z,17.10
2019-06-08T09:50:42.299Z,16.40
2019-06-08T09:55:49.680Z,16.20
2019-06-08T10:01:15.455Z,16.10
2019-06-08T10:06:42.012Z,16.30
2019-06-08T10:11:49.164Z,16.30
2019-06-08T10:17:20.534Z,16.50
2019-06-08T10:22:24.753Z,16.50
2019-06-08T10:27:50.084Z,16.40
2019-06-08T10:33:01.608Z,16.60
2019-06-08T10:38:12.133Z,16.70
2019-06-08T10:43:22.919Z,16.80
2019-06-08T10:48:30.952Z,16.70
2019-06-08T10:53:48.430Z,17.00
2019-06-08T10:58:53.169Z,17.20
2019-06-08T11:04:01.902Z,17.40
2019-06-08T11:09:13.285Z,17.30
2019-06-08T11:14:31.636Z,17.70
2019-06-08T11:19:39.946Z,18.20
2019-06-08T11:24:48.569Z,18.70
2019-06-08T11:29:57.568Z,19.30
2019-06-08T11:35:10.644Z,19.70
2019-06-08T11:40:33.161Z,20.20
2019-06-08T11:46:02.544Z,20.20
2019-06-08T11:51:12.902Z,20.60
2019-06-08T11:56:27.183Z,20.70
2019-06-08T12:01:38.589Z,20.50
2019-06-08T12:06:48.273Z,20.50
2019-06-08T12:11:54.660Z,20.90
2019-06-08T12:17:03.047Z,20.90
2019-06-08T12:22:21.869Z,21.10
2019-06-08T12:27:36.113Z,21.00
2019-06-08T12:32:39.201Z,21.00
2019-06-08T12:37:48.822Z,21.10
2019-06-08T12:42:59.471Z,20.80
2019-06-08T12:48:04.519Z,21.50
2019-06-08T12:53:14.921Z,21.40
2019-06-08T12:58:22.147Z,21.50
2019-06-08T13:03:29.925Z,21.50
2019-06-08T13:08:37.099Z,21.20
2019-06-08T13:13:44.147Z,20.90
2019-06-08T13:18:51.329Z,20.90
2019-06-08T13:23:59.261Z,20.90
2019-06-08T13:29:09.219Z,21.10
2019-06-08T13:34:24.143Z,21.50
2019-06-08T13:39:32.588Z,21.40
2019-06-08T13:44:44.175Z,21.60
2019-06-08T13:50:11.015Z,21.30
2019-06-08T13:55:40.398Z,21.40
2019-06-08T14:00:49.319Z,21.70
2019-06-08T14:06:04.767Z,22.00
2019-06-08T14:11:14.572Z,21.90
2019-06-08T14:16:33.165Z,22.00
2019-06-08T14:21:42.169Z,21.90
2019-06-08T14:27:08.198Z,22.30
2019-06-08T14:32:19.518Z,21.60
2019-06-08T14:37:30.286Z,21.70
2019-06-08T14:42:38.390Z,21.50
2019-06-08T14:47:47.525Z,21.70
2019-06-08T14:52:58.939Z,21.70
2019-06-08T14:58:05.304Z,22.10
2019-06-08T15:03:13.382Z,21.80
2019-06-08T15:08:21.592Z,22.10
2019-06-08T15:13:31.157Z,22.00
2019-06-08T15:18:38.548Z,22.10
2019-06-08T15:23:47.678Z,22.30
2019-06-08T15:28:54.965Z,22.10
2019-06-08T15:34:04.618Z,22.20
2019-06-08T15:39:14.146Z,22.10
2019-06-08T15:44:24.346Z,22.20
2019-06-08T15:49:32.288Z,22.00
2019-06-08T15:54:49.068Z,22.00
2019-06-08T15:59:58.555Z,22.30
2019-06-08T16:05:21.519Z,21.80
2019-06-08T16:10:36.101Z,22.10
2019-06-08T16:16:01.551Z,21.90
2019-06-08T16:21:20.829Z,21.70
2019-06-08T16:26:53.277Z,22.00
2019-06-08T16:32:07.658Z,21.90
2019-06-08T16:37:33.666Z,22.20
2019-06-08T16:42:41.575Z,22.30
2019-06-08T16:48:07.977Z,22.20
2019-06-08T16:53:16.448Z,22.10
2019-06-08T16:58:25.227Z,22.20
2019-06-08T17:03:32.851Z,22.00
2019-06-08T17:08:44.355Z,21.90
2019-06-08T17:14:02.221Z,21.80
2019-06-08T17:19:11.071Z,21.80
2019-06-08T17:24:30.368Z,21.60
2019-06-08T17:29:56.057Z,21.50
2019-06-08T17:35:03.281Z,21.10
2019-06-08T17:40:13.606Z,21.20
2019-06-08T17:45:23.334Z,21.10
2019-06-08T17:50:48.638Z,21.10
2019-06-08T17:56:08.832Z,20.90
2019-06-08T18:01:17.012Z,21.20
2019-06-08T18:06:29.199Z,21.20
2019-06-08T18:11:41.941Z,20.90
2019-06-08T18:16:49.235Z,20.70
2019-06-08T18:22:14.508Z,20.60
2019-06-08T18:27:39.169Z,20.40
2019-06-08T18:32:48.560Z,20.30
2019-06-08T18:37:58.038Z,19.90
2019-06-08T18:43:07.740Z,19.70
2019-06-08T18:48:30.965Z,19.40
2019-06-08T18:54:01.776Z,19.00
2019-06-08T18:58:58.302Z,18.90
2019-06-08T19:04:24.230Z,18.60
2019-06-08T19:09:37.504Z,18.20
2019-06-08T19:14:55.675Z,18.00
2019-06-08T19:20:08.310Z,17.80
2019-06-08T19:25:18.877Z,17.60
2019-06-08T19:30:28.136Z,17.40
2019-06-08T19:35:54.187Z,17.10
2019-06-08T19:41:03.492Z,16.80
2019-06-08T19:46:12.189Z,16.50
2019-06-08T19:51:24.863Z,16.20
2019-06-08T19:56:32.904Z,16.00
2019-06-08T20:01:51.385Z,15.80
2019-06-08T20:07:02.450Z,15.60
2019-06-08T20:12:11.086Z,15.30
2019-06-08T20:17:19.392Z,15.00
2019-06-08T20:22:31.017Z,14.80
2019-06-08T20:27:58.730Z,14.60
2019-06-08T20:33:23.717Z,14.40
2019-06-08T20:38:41.650Z,14.20
2019-06-08T20:43:49.106Z,14.00
2019-06-08T20:48:57.688Z,13.70
2019-06-08T20:54:17.237Z,13.50
2019-06-08T20:59:30.977Z,13.30
2019-06-08T21:04:38.202Z,13.10
2019-06-08T21:09:51.154Z,12.90
2019-06-08T21:15:08.079Z,12.70
2019-06-08T21:20:17.698Z,12.60
2019-06-08T21:25:28.121Z,12.50
2019-06-08T21:30:37.524Z,12.50
2019-06-08T21:36:04.943Z,12.40
2019-06-08T21:41:30.798Z,12.20
2019-06-08T21:46:39.461Z,12.00
2019-06-08T21:51:48.778Z,11.80
2019-06-08T21:57:06.605Z,11.70
2019-06-08T22:02:16.712Z,11.50
2019-06-08T22:07:38.456Z,11.40
2019-06-08T22:12:52.394Z,11.10
2019-06-08T22:18:04.174Z,11.00
2019-06-08T22:23:29.797Z,10.90
2019-06-08T22:28:38.317Z,10.80
2019-06-08T22:33:48.165Z,10.70
2019-06-08T22:39:07.871Z,10.50
2019-06-08T22:44:20.842Z,10.40
2019-06-08T23:09:22.581Z,9.40
2019-06-08T23:14:48.274Z,9.30
2019-06-08T23:20:13.942Z,9.20
2019-06-08T23:25:27.902Z,9.20
2019-06-08T23:31:05.810Z,9.20
2019-06-08T23:36:45.442Z,9.10
2019-06-08T23:41:48.369Z,9.10
2019-06-08T23:47:14.774Z,9.00
2019-06-08T23:52:39.971Z,9.00
2019-06-08T23:58:09.841Z,8.90
